Terminal Aerodrome Forecast
Issued by NWS

Home | Current Version | Previous Version | Text Only | Print | Product List | Glossary On
Versions: 1 2 3 4 5 6 7 8 9 10 11 12 13 14 15 16
363
FTUS42 KTBW 252143 AAB
TAFRSW
TAF AMD
KRSW 252143Z 2522/2618 19010KT P6SM VCTS SCT040CB BKN080
      TEMPO 2522/2524 VRB15G25KT 3SM TSRA BKN030CB
     FM260000 27005KT P6SM VCTS SCT050CB SCT100 BKN250
     FM260200 10003KT P6SM SCT035 BKN250
     FM261400 08004KT P6SM FEW025 FEW250=

USA.gov is the U.S. government's official web portal to all federal, state and local government web resources and services.